Time;durP1;ratioP1;P1;durP2;ratioP2;P2;SDS_P1;SDS_P2;PMS_P1;PMS_P2;Temp;Humidity;BMP_temperature;BMP_pressure;BME280_temperature;BME280_humidity;BME280_pressure;Samples;Min_cycle;Max_cycle;Signal;HPM_P1;HPM_P2
2022/07/01 00:04:04;;;;;;;2.38;0.73;;;;;;;22.92;43.55;101464.41;16141118;19;129304;-51
2022/07/01 00:09:27;;;;;;;0.80;0.40;;;;;;;22.91;43.71;101459.09;16138404;19;129949;-50
2022/07/01 00:14:49;;;;;;;2.22;0.30;;;;;;;22.88;43.81;101441.75;16147108;19;129124;-53
2022/07/01 00:20:11;;;;;;;2.50;0.60;;;;;;;22.88;43.81;101438.13;16138941;19;129449;-53
2022/07/01 00:25:33;;;;;;;0.65;0.40;;;;;;;22.85;43.91;101425.53;16138575;19;130293;-54
2022/07/01 00:30:55;;;;;;;1.27;0.50;;;;;;;22.85;43.84;101430.28;16134716;19;128870;-51
2022/07/01 00:36:17;;;;;;;2.25;0.57;;;;;;;22.85;43.72;101413.53;16139025;19;129422;-55
2022/07/01 00:41:38;;;;;;;2.13;0.50;;;;;;;22.83;43.59;101432.50;16137859;19;130706;-52
2022/07/01 00:47:03;;;;;;;1.05;0.60;;;;;;;22.83;44.10;101446.44;16137405;19;130058;-55
2022/07/01 00:52:25;;;;;;;0.70;0.50;;;;;;;22.82;43.55;101453.13;16139431;19;130980;-55
2022/07/01 00:57:50;;;;;;;;;;;;;;;22.78;43.69;101457.53;16133191;19;129139;-55
2022/07/01 01:03:12;;;;;;;1.00;0.63;;;;;;;22.79;43.80;101473.16;16140027;19;128983;-55
2022/07/01 01:08:35;;;;;;;0.80;0.50;;;;;;;22.78;43.62;101485.41;16135516;19;128881;-54
2022/07/01 01:13:57;;;;;;;0.93;0.65;;;;;;;22.77;43.63;101484.59;16137734;19;129701;-56
2022/07/01 01:19:18;;;;;;;1.83;0.60;;;;;;;22.77;43.59;101500.50;16137161;19;129268;-53
2022/07/01 01:24:42;;;;;;;1.75;0.60;;;;;;;22.76;43.56;101508.00;16135607;19;129339;-52
2022/07/01 01:30:05;;;;;;;1.63;0.60;;;;;;;22.73;43.59;101495.44;16130728;19;130894;-56
2022/07/01 01:35:27;;;;;;;0.95;0.50;;;;;;;22.72;43.75;101485.38;16129787;19;130172;-54
2022/07/01 01:40:49;;;;;;;2.67;0.60;;;;;;;22.71;43.46;101492.06;16129830;19;128936;-55
2022/07/01 01:46:14;;;;;;;1.05;0.65;;;;;;;22.71;43.26;101508.78;16130815;19;130029;-55
2022/07/01 01:51:37;;;;;;;1.83;0.70;;;;;;;22.71;43.40;101521.88;16133270;19;129917;-55
2022/07/01 01:56:59;;;;;;;1.67;0.73;;;;;;;22.69;43.23;101519.38;16135564;19;129740;-54
2022/07/01 02:02:21;;;;;;;1.00;0.65;;;;;;;22.68;43.43;101505.69;16134733;19;129398;-53
2022/07/01 02:07:43;;;;;;;2.65;0.68;;;;;;;22.67;43.03;101490.06;16132983;19;129219;-52
2022/07/01 02:13:04;;;;;;;0.50;0.50;;;;;;;22.67;43.36;101518.78;16132151;19;129738;-55
2022/07/01 02:18:27;;;;;;;1.25;0.50;;;;;;;22.66;43.42;101499.53;16131776;19;129240;-55
2022/07/01 02:23:51;;;;;;;1.98;0.80;;;;;;;22.64;43.23;101497.00;16127745;19;130229;-53
2022/07/01 02:29:13;;;;;;;1.17;0.60;;;;;;;22.63;43.24;101500.91;16128580;19;129211;-55
2022/07/01 02:34:35;;;;;;;1.30;0.60;;;;;;;22.63;43.12;101511.19;16145680;19;129934;-54
2022/07/01 02:39:57;;;;;;;0.73;0.50;;;;;;;22.61;43.09;101517.03;16128657;19;128926;-56
2022/07/01 02:45:19;;;;;;;2.15;0.68;;;;;;;22.61;43.19;101517.03;16135531;19;129310;-55
2022/07/01 02:50:41;;;;;;;0.50;0.40;;;;;;;22.61;43.06;101511.47;16143017;19;130139;-54
2022/07/01 02:56:03;;;;;;;0.50;0.40;;;;;;;22.59;43.08;101519.25;16147627;19;130033;-55
2022/07/01 03:01:25;;;;;;;1.20;0.50;;;;;;;22.59;43.06;101522.03;16147034;19;129545;-54
2022/07/01 03:06:47;;;;;;;0.82;0.50;;;;;;;22.57;43.00;101530.66;16145690;19;129248;-54
2022/07/01 03:12:25;;;;;;;2.42;0.43;;;;;;;22.57;43.35;101535.38;16146634;19;129062;-53
2022/07/01 03:17:50;;;;;;;1.42;0.55;;;;;;;22.56;42.95;101544.84;16145625;19;129537;-54
2022/07/01 03:23:12;;;;;;;7.20;0.70;;;;;;;22.54;42.96;101547.91;16147750;19;130245;-53
2022/07/01 03:28:34;;;;;;;0.52;0.35;;;;;;;22.54;42.92;101552.63;16145650;19;129656;-53
2022/07/01 03:33:55;;;;;;;1.73;0.65;;;;;;;22.53;42.75;101567.66;16147738;19;128865;-54
2022/07/01 03:39:17;;;;;;;0.80;0.45;;;;;;;22.52;43.08;101574.38;16142645;19;129564;-53
2022/07/01 03:44:39;;;;;;;0.95;0.50;;;;;;;22.51;42.91;101576.28;16136808;19;129228;-50
2022/07/01 03:50:02;;;;;;;1.35;0.35;;;;;;;22.51;42.88;101583.81;16138882;19;129912;-54
2022/07/01 03:55:24;;;;;;;2.83;0.38;;;;;;;22.51;42.84;101583.81;16141902;19;129384;-55
2022/07/01 04:00:46;;;;;;;0.82;0.50;;;;;;;22.49;42.99;101588.81;16141677;19;130856;-50
2022/07/01 04:06:08;;;;;;;1.10;0.50;;;;;;;22.47;42.98;101596.59;16143587;19;129593;-51
2022/07/01 04:11:31;;;;;;;0.60;0.30;;;;;;;22.47;42.88;101602.16;16143083;19;129564;-54
2022/07/01 04:16:53;;;;;;;1.88;0.57;;;;;;;22.47;42.71;101599.38;16145174;19;130366;-55
2022/07/01 04:22:33;;;;;;;0.40;0.30;;;;;;;22.46;42.98;101587.38;16146858;19;129946;-55
2022/07/01 04:27:56;;;;;;;2.13;0.47;;;;;;;22.43;42.79;101585.94;16140017;19;130604;-52
2022/07/01 04:33:18;;;;;;;1.35;0.50;;;;;;;22.43;42.86;101599.88;16140928;19;129545;-53
2022/07/01 04:38:40;;;;;;;0.73;0.50;;;;;;;22.41;43.07;101610.44;16141571;19;130546;-54
2022/07/01 04:44:02;;;;;;;1.48;0.40;;;;;;;22.41;42.93;101612.41;16144100;19;129487;-52
2022/07/01 04:49:24;;;;;;;2.28;0.40;;;;;;;22.40;42.76;101617.09;16146143;19;131508;-53
2022/07/01 04:54:46;;;;;;;1.10;0.50;;;;;;;22.40;42.79;101625.47;16149555;19;132125;-49
2022/07/01 05:00:08;;;;;;;1.50;0.45;;;;;;;22.40;42.67;101625.47;16149446;19;129744;-54
2022/07/01 05:05:30;;;;;;;0.70;0.50;;;;;;;22.39;42.92;101622.94;16139848;19;128989;-54
2022/07/01 05:10:52;;;;;;;1.13;0.50;;;;;;;22.39;42.85;101634.09;16131367;19;130409;-54
2022/07/01 05:16:14;;;;;;;3.45;0.60;;;;;;;22.38;42.97;101633.28;16138530;19;128917;-54
2022/07/01 05:27:16;;;;;;;2.28;0.38;;;;;;;22.41;43.11;101627.16;16134330;19;129618;-53
2022/07/01 05:32:38;;;;;;;0.80;0.50;;;;;;;22.45;42.70;101627.53;16137145;19;130002;-52
2022/07/01 05:37:59;;;;;;;0.90;0.40;;;;;;;22.51;43.08;101634.03;16133764;19;130131;-54
2022/07/01 05:43:21;;;;;;;1.15;0.50;;;;;;;22.58;42.85;101634.66;16132267;19;129085;-55
2022/07/01 05:48:43;;;;;;;3.35;0.60;;;;;;;22.67;42.48;101641.50;16134720;19;130609;-54
2022/07/01 05:54:05;;;;;;;3.22;0.60;;;;;;;22.77;42.70;101640.78;16136209;19;130236;-57
2022/07/01 05:59:27;;;;;;;3.40;0.70;;;;;;;22.84;42.61;101644.22;16135305;19;131174;-53
2022/07/01 06:04:48;;;;;;;3.55;0.60;;;;;;;22.89;42.74;101651.84;16136965;19;133668;-56
2022/07/01 06:10:11;;;;;;;3.30;0.93;;;;;;;22.93;42.27;101641.88;16130583;19;129056;-57
2022/07/01 06:15:33;;;;;;;6.72;0.82;;;;;;;22.99;42.13;101643.66;16135284;19;129408;-53
2022/07/01 06:20:57;;;;;;;6.55;1.00;;;;;;;23.03;42.22;101657.94;16147896;19;129323;-55
2022/07/01 06:26:18;;;;;;;3.13;0.85;;;;;;;23.03;42.41;101655.97;16150470;19;128904;-56
2022/07/01 06:31:40;;;;;;;2.63;0.80;;;;;;;23.03;42.45;101653.16;16147895;19;129413;-53
2022/07/01 06:37:03;;;;;;;4.15;1.10;;;;;;;23.08;42.36;101657.13;16148652;19;130765;-50
2022/07/01 06:42:25;;;;;;;3.30;1.05;;;;;;;23.12;42.33;101652.75;16153112;19;129373;-50
2022/07/01 06:47:47;;;;;;;6.28;1.10;;;;;;;23.17;42.41;101652.78;16145430;19;129860;-55
2022/07/01 06:53:08;;;;;;;4.13;1.08;;;;;;;23.21;41.84;101653.97;16148422;19;129621;-52
2022/07/01 06:58:31;;;;;;;4.68;1.20;;;;;;;23.27;41.72;101641.75;16150490;19;128913;-49
2022/07/01 07:03:53;;;;;;;7.38;1.38;;;;;;;23.33;41.82;101662.19;16159344;19;128927;-51
2022/07/01 07:09:15;;;;;;;6.60;1.20;;;;;;;23.32;41.65;101658.56;16161491;19;129557;-54
2022/07/01 07:14:36;;;;;;;4.40;1.00;;;;;;;23.35;41.42;101668.34;16144388;19;129240;-54
2022/07/01 07:19:59;;;;;;;5.25;1.45;;;;;;;23.38;41.37;101665.06;16143268;19;130829;-55
2022/07/01 07:25:22;;;;;;;2.67;1.00;;;;;;;23.36;41.33;101658.88;16144836;19;129763;-56
2022/07/01 07:30:43;;;;;;;3.67;1.10;;;;;;;23.38;41.17;101667.84;16139487;19;129741;-51
2022/07/01 07:36:05;;;;;;;4.07;1.30;;;;;;;23.38;41.13;101667.00;16144005;19;128951;-54
2022/07/01 07:41:27;;;;;;;4.68;1.00;;;;;;;23.38;41.22;101673.44;16138216;19;129308;-56
2022/07/01 07:46:49;;;;;;;7.60;1.00;;;;;;;23.40;40.98;101682.38;16142155;19;130615;-51
2022/07/01 07:52:11;;;;;;;3.97;1.30;;;;;;;23.41;40.80;101697.19;16140350;19;129102;-55
2022/07/01 07:57:35;;;;;;;3.40;0.90;;;;;;;23.42;40.63;101696.09;16144825;19;129998;-54
2022/07/01 08:02:57;;;;;;;6.72;1.20;;;;;;;23.40;40.62;101687.97;16142879;19;130049;-53
2022/07/01 08:08:19;;;;;;;4.32;0.90;;;;;;;23.42;40.54;101693.28;16142558;19;129164;-53
2022/07/01 08:13:44;;;;;;;2.33;0.77;;;;;;;23.44;40.36;101702.25;16142095;19;129298;-56
2022/07/01 08:19:05;;;;;;;3.78;0.90;;;;;;;23.44;40.21;101699.47;16139035;19;129463;-54
2022/07/01 08:24:27;;;;;;;4.15;0.95;;;;;;;23.42;39.88;101696.09;16139209;19;130478;-53
2022/07/01 08:29:49;;;;;;;2.13;0.80;;;;;;;23.41;40.39;101705.56;16137089;19;130706;-53
2022/07/01 08:35:12;;;;;;;2.78;0.70;;;;;;;23.42;39.81;101708.13;16139004;19;130075;-50
2022/07/01 08:40:34;;;;;;;6.40;0.80;;;;;;;23.40;40.10;101715.03;16139776;19;130723;-55
2022/07/01 08:45:58;;;;;;;4.78;1.10;;;;;;;23.42;40.10;101707.25;16137719;19;128961;-53
2022/07/01 08:51:20;;;;;;;5.10;0.93;;;;;;;23.40;40.03;101715.91;16128444;19;130019;-47
2022/07/01 08:56:42;;;;;;;5.38;0.98;;;;;;;23.39;40.29;101710.56;16137159;19;129412;-51
2022/07/01 09:02:05;;;;;;;4.47;0.63;;;;;;;23.35;39.90;101719.47;16137122;19;129001;-52
2022/07/01 09:07:33;;;;;;;6.15;1.17;;;;;;;23.35;40.35;101713.91;16131252;19;129384;-50
2022/07/01 09:13:07;;;;;;;5.30;0.70;;;;;;;23.32;40.09;101719.97;16129176;19;130585;-53
2022/07/01 09:18:29;;;;;;;5.97;1.08;;;;;;;23.32;40.33;101719.16;16131200;19;131039;-52
2022/07/01 09:23:51;;;;;;;5.65;0.90;;;;;;;23.33;40.19;101716.09;16127689;19;131524;-54
2022/07/01 09:29:13;;;;;;;3.53;0.90;;;;;;;23.30;39.69;101727.78;16134359;19;129689;-53
2022/07/01 09:34:39;;;;;;;4.43;0.85;;;;;;;23.28;40.82;101735.56;16134359;19;129746;-53
2022/07/01 09:40:03;;;;;;;3.20;0.80;;;;;;;23.27;39.87;101728.28;16133646;19;130607;-52
2022/07/01 09:45:25;;;;;;;3.67;0.80;;;;;;;23.26;40.10;101732.19;16134295;19;129670;-47
2022/07/01 09:50:47;;;;;;;5.20;0.77;;;;;;;23.24;40.37;101751.16;16131813;19;129900;-52
2022/07/01 09:56:09;;;;;;;2.28;0.52;;;;;;;23.23;40.31;101745.81;16132952;19;130110;-56
2022/07/01 10:01:32;;;;;;;5.43;0.60;;;;;;;23.26;40.15;101748.97;16133959;19;129151;-53
2022/07/01 10:07:16;;;;;;;2.55;0.63;;;;;;;23.30;39.48;101750.09;16133909;19;129799;-51
2022/07/01 10:12:46;;;;;;;3.85;0.85;;;;;;;23.29;39.89;101761.53;16127940;19;130041;-54
2022/07/01 10:18:23;;;;;;;2.88;0.82;;;;;;;23.30;40.16;101760.44;16134134;19;129434;-50
2022/07/01 10:23:45;;;;;;;4.53;0.70;;;;;;;23.25;39.80;101758.44;16131427;19;130440;-50
2022/07/01 10:29:32;;;;;;;4.90;0.60;;;;;;;23.25;40.21;101768.72;16130440;19;129933;-52
2022/07/01 10:35:05;;;;;;;4.25;0.80;;;;;;;23.25;40.17;101768.72;16129414;19;130545;-49
2022/07/01 10:40:50;;;;;;;3.38;0.60;;;;;;;23.27;39.67;101755.38;16129984;19;129329;-54
2022/07/01 10:46:45;;;;;;;2.58;0.52;;;;;;;23.26;39.29;101759.25;16130789;19;130151;-54
2022/07/01 10:52:10;;;;;;;2.20;0.52;;;;;;;23.26;39.76;101759.25;16127977;19;129631;-54
2022/07/01 10:57:34;;;;;;;3.28;0.75;;;;;;;23.24;39.82;101769.84;16126604;19;130200;-53
2022/07/01 11:03:05;;;;;;;5.88;0.52;;;;;;;23.24;39.93;101762.31;16130050;19;129077;-53
2022/07/01 11:08:27;;;;;;;4.85;0.50;;;;;;;23.22;39.93;101756.16;16142321;19;129423;-55
2022/07/01 11:13:57;;;;;;;3.90;0.77;;;;;;;23.20;40.08;101752.75;16145086;19;130352;-51
2022/07/01 11:19:18;;;;;;;3.63;0.50;;;;;;;23.20;39.73;101749.97;16147023;19;131838;-56
2022/07/01 11:24:40;;;;;;;3.20;0.40;;;;;;;23.19;39.98;101759.44;16145968;19;130406;-53
2022/07/01 11:30:06;;;;;;;3.40;0.60;;;;;;;23.18;39.95;101747.44;16144324;19;130142;-53
2022/07/01 11:41:24;;;;;;;4.00;0.77;;;;;;;23.16;40.16;101746.84;16143658;19;129365;-54
2022/07/01 11:46:50;;;;;;;3.25;0.40;;;;;;;23.16;40.17;101749.66;16145234;19;131066;-52
2022/07/01 11:52:13;;;;;;;2.85;0.40;;;;;;;23.16;40.23;101740.41;16139769;19;129485;-53
2022/07/01 11:57:35;;;;;;;3.13;0.32;;;;;;;23.17;40.14;101744.91;16140253;19;129226;-53
2022/07/01 12:02:56;;;;;;;3.67;0.50;;;;;;;23.19;40.16;101742.69;16142488;19;129253;-51
2022/07/01 12:08:18;;;;;;;3.75;0.60;;;;;;;23.18;40.09;101741.88;16142652;19;129318;-53
2022/07/01 12:13:40;;;;;;;2.53;0.40;;;;;;;23.18;40.16;101743.81;16137243;19;129042;-54
2022/07/01 12:19:02;;;;;;;2.47;0.43;;;;;;;23.18;38.72;101741.00;16140502;19;129437;-52
2022/07/01 12:24:24;;;;;;;3.63;0.75;;;;;;;23.11;37.45;101745.94;16141439;19;130455;-53
2022/07/01 12:29:46;;;;;;;2.50;0.57;;;;;;;23.08;36.99;101736.13;16141141;19;128933;-52
2022/07/01 12:40:49;;;;;;;1.48;0.43;;;;;;;23.10;36.13;101733.09;16139627;19;131382;-52
2022/07/01 12:46:27;;;;;;;4.32;0.82;;;;;;;23.13;37.48;101722.25;16141467;19;129262;-51
2022/07/01 12:51:51;;;;;;;8.20;0.75;;;;;;;23.12;37.52;101725.31;16138101;19;128870;-53
2022/07/01 12:57:12;;;;;;;3.50;0.60;;;;;;;23.11;37.08;101730.03;16139082;19;130518;-53
2022/07/01 13:02:34;;;;;;;2.05;0.73;;;;;;;23.13;37.72;101738.16;16139628;19;129543;-51
2022/07/01 13:07:57;;;;;;;5.45;0.77;;;;;;;23.16;36.99;101737.63;16138190;19;129410;-52
2022/07/01 13:13:19;;;;;;;3.95;0.40;;;;;;;23.16;37.36;101744.06;16131653;19;130235;-51
2022/07/01 13:18:41;;;;;;;6.30;0.68;;;;;;;23.19;37.28;101731.53;16137636;19;129175;-49
2022/07/01 13:24:03;;;;;;;4.57;0.50;;;;;;;23.23;37.37;101745.81;16134357;19;129122;-54
2022/07/01 13:29:44;;;;;;;6.82;0.65;;;;;;;23.20;37.78;101739.63;16135595;19;130653;-53
2022/07/01 13:35:11;;;;;;;4.07;0.70;;;;;;;23.18;37.71;101754.97;16137189;19;129398;-51
2022/07/01 13:40:33;;;;;;;3.78;0.73;;;;;;;23.17;37.93;101767.22;16135095;19;129356;-51
2022/07/01 13:45:55;;;;;;;3.60;0.30;;;;;;;23.16;37.59;101776.69;16131019;19;130254;-54
2022/07/01 13:51:17;;;;;;;4.13;0.50;;;;;;;23.14;37.69;101778.94;16132025;19;130009;-49
2022/07/01 13:56:38;;;;;;;3.13;0.28;;;;;;;23.14;37.94;101784.50;16135183;19;129189;-50
2022/07/01 14:02:00;;;;;;;5.78;0.75;;;;;;;23.14;38.04;101790.94;16134461;19;129699;-54
2022/07/01 14:07:22;;;;;;;2.03;0.40;;;;;;;23.16;37.94;101811.06;16134006;19;130900;-54
2022/07/01 14:12:44;;;;;;;3.45;0.40;;;;;;;23.17;37.81;101823.06;16129969;19;129614;-52
2022/07/01 14:18:06;;;;;;;1.83;0.30;;;;;;;23.16;38.04;101821.38;16132648;19;130740;-50
2022/07/01 14:23:28;;;;;;;1.65;0.40;;;;;;;23.15;38.26;101828.03;16132894;19;129050;-53
2022/07/01 14:28:53;;;;;;;4.43;0.80;;;;;;;23.14;37.94;101834.75;16130198;19;129198;-52
2022/07/01 14:34:15;;;;;;;0.88;0.30;;;;;;;23.12;38.22;101831.38;16126875;19;129274;-53
2022/07/01 14:39:37;;;;;;;2.55;0.40;;;;;;;23.11;38.35;101844.47;16131356;19;129728;-53
2022/07/01 14:44:59;;;;;;;1.02;0.30;;;;;;;23.10;38.34;101847.53;16143289;19;129015;-51
2022/07/01 14:50:21;;;;;;;0.60;0.30;;;;;;;23.09;38.44;101843.03;16146164;19;130167;-51
2022/07/01 14:55:43;;;;;;;2.55;0.30;;;;;;;23.09;38.65;101843.03;16145026;19;129348;-50
2022/07/01 15:01:05;;;;;;;1.90;0.25;;;;;;;23.07;38.69;101846.09;16143205;19;129255;-51
2022/07/01 15:06:27;;;;;;;1.30;0.28;;;;;;;23.08;38.58;101844.13;16145732;19;129623;-55
2022/07/01 15:11:49;;;;;;;2.15;0.30;;;;;;;23.09;38.70;101843.88;16140964;19;128997;-53
2022/07/01 15:17:14;;;;;;;1.25;0.30;;;;;;;23.11;38.38;101846.41;16146200;19;129263;-49
2022/07/01 15:22:36;;;;;;;0.68;0.20;;;;;;;23.12;38.73;101843.38;16145167;19;129023;-52
2022/07/01 15:27:58;;;;;;;0.43;0.10;;;;;;;23.14;38.93;101835.59;16143525;19;129721;-53
2022/07/01 15:33:20;;;;;;;1.65;0.50;;;;;;;23.16;38.93;101838.09;16141658;19;129219;-51
2022/07/01 15:38:42;;;;;;;0.30;0.20;;;;;;;23.18;39.09;101838.69;16142386;19;129605;-54
2022/07/01 15:44:05;;;;;;;1.25;0.30;;;;;;;23.19;39.00;101837.59;16137038;19;131010;-52
2022/07/01 15:49:29;;;;;;;0.80;0.20;;;;;;;23.19;39.33;101843.19;16142167;19;129355;-52
2022/07/01 15:54:51;;;;;;;1.85;0.30;;;;;;;23.17;38.83;101840.66;16133404;19;130027;-49
2022/07/01 16:00:16;;;;;;;1.98;0.32;;;;;;;23.15;39.17;101853.16;16137678;19;129321;-51
2022/07/01 16:05:38;;;;;;;4.05;0.38;;;;;;;23.12;39.95;101848.13;16137521;19;129074;-52
2022/07/01 16:11:08;;;;;;;3.50;1.00;;;;;;;23.16;39.75;101840.91;16138096;19;129046;-52
2022/07/01 16:16:32;;;;;;;5.05;0.50;;;;;;;23.17;39.59;101846.25;16135597;19;129954;-52
2022/07/01 16:21:56;;;;;;;1.92;0.45;;;;;;;23.23;39.36;101849.97;16139876;19;129615;-50
2022/07/01 16:27:20;;;;;;;1.45;0.20;;;;;;;23.24;39.88;101834.91;16137490;19;130658;-53
2022/07/01 16:32:45;;;;;;;2.97;0.40;;;;;;;23.26;40.08;101838.28;16137099;19;129561;-53
2022/07/01 16:38:08;;;;;;;4.97;0.45;;;;;;;23.26;39.97;101849.47;16135273;19;130151;-53
2022/07/01 16:43:45;;;;;;;13.30;1.70;;;;;;;23.27;40.23;101856.72;16131731;19;129720;-51
2022/07/01 16:49:24;;;;;;;14.40;0.82;;;;;;;23.30;40.17;101856.19;16139500;19;129393;-55
2022/07/01 16:54:57;;;;;;;10.30;0.90;;;;;;;23.31;40.19;101857.91;16132969;19;128984;-54
2022/07/01 17:00:20;;;;;;;9.52;1.35;;;;;;;23.30;40.61;101859.00;16137851;19;130192;-50
2022/07/01 17:05:43;;;;;;;9.30;1.00;;;;;;;23.33;40.58;101864.06;16135744;19;129578;-51
2022/07/01 17:11:06;;;;;;;8.60;0.77;;;;;;;23.31;40.68;101857.06;16131223;19;131646;-52
2022/07/01 17:16:30;;;;;;;10.27;1.30;;;;;;;23.29;41.30;101860.09;16129118;19;129612;-51
2022/07/01 17:21:58;;;;;;;9.50;1.13;;;;;;;23.33;41.14;101858.50;16136730;19;129609;-54
2022/07/01 17:27:44;;;;;;;6.40;0.90;;;;;;;23.33;41.13;101866.88;16135494;19;131823;-57
2022/07/01 17:33:07;;;;;;;5.95;0.93;;;;;;;23.31;41.10;101874.66;16133522;19;130541;-56
2022/07/01 17:38:42;;;;;;;7.30;0.80;;;;;;;23.31;41.23;101879.41;16135121;19;131950;-55
2022/07/01 17:44:10;;;;;;;6.97;0.90;;;;;;;23.28;41.53;101875.16;16132008;19;129959;-54
2022/07/01 17:49:33;;;;;;;5.47;0.80;;;;;;;23.29;41.30;101879.63;16128693;19;129617;-57
2022/07/01 17:54:57;;;;;;;7.28;0.70;;;;;;;23.28;41.24;101877.94;16128498;19;129881;-53
2022/07/01 18:00:18;;;;;;;8.43;0.50;;;;;;;23.28;41.27;101880.72;16134039;19;129573;-55
2022/07/01 18:05:42;;;;;;;3.70;0.52;;;;;;;23.27;41.32;101887.41;16132341;19;129358;-57
2022/07/01 18:11:11;;;;;;;5.75;0.68;;;;;;;23.27;41.12;101893.00;16133562;19;129303;-57
2022/07/01 18:17:11;;;;;;;7.90;1.00;;;;;;;23.26;41.28;101887.69;16143184;19;130478;-54
2022/07/01 18:22:45;;;;;;;11.27;1.48;;;;;;;23.25;41.34;101886.84;16147161;19;129809;-49
2022/07/01 18:28:11;;;;;;;11.80;1.50;;;;;;;23.22;41.42;101892.94;16149676;19;130128;-55
2022/07/01 18:33:39;;;;;;;18.70;1.33;;;;;;;23.21;41.37;101882.88;16144071;19;129455;-52
2022/07/01 18:39:02;;;;;;;17.65;1.75;;;;;;;23.18;41.57;101887.03;16139753;19;129446;-54
2022/07/01 18:44:24;;;;;;;15.77;0.93;;;;;;;23.18;41.16;101898.19;16143161;19;130903;-52
2022/07/01 18:49:46;;;;;;;16.55;1.63;;;;;;;23.17;41.32;101893.69;16146789;19;130221;-54
2022/07/01 18:55:09;;;;;;;9.35;1.20;;;;;;;23.16;41.32;101899.53;16140569;19;130441;-53
2022/07/01 19:00:31;;;;;;;10.10;1.33;;;;;;;23.16;41.43;101905.09;16147241;19;130068;-53
2022/07/01 19:05:53;;;;;;;9.93;1.10;;;;;;;23.14;41.03;101901.75;16142316;19;129374;-55
2022/07/01 19:11:16;;;;;;;113.25;7.03;;;;;;;23.13;41.30;101911.22;16143983;19;128960;-52
2022/07/01 19:16:38;;;;;;;46.58;2.80;;;;;;;23.12;40.91;101918.72;16145312;19;130598;-55
2022/07/01 19:22:01;;;;;;;32.65;2.30;;;;;;;23.14;41.36;101924.91;16145404;19;130829;-54
2022/07/01 19:27:23;;;;;;;27.70;2.15;;;;;;;23.13;41.31;101939.97;16141689;19;129457;-53
2022/07/01 19:32:45;;;;;;;37.70;3.58;;;;;;;23.13;41.53;101950.28;16143120;19;129746;-54
2022/07/01 19:38:07;;;;;;;32.25;2.78;;;;;;;23.12;41.54;101956.97;16140264;19;130081;-54
2022/07/01 19:43:29;;;;;;;23.75;2.80;;;;;;;23.11;41.52;101966.44;16140666;19;129705;-51
2022/07/01 19:48:51;;;;;;;21.42;1.80;;;;;;;23.11;41.63;101969.22;16141959;19;129439;-50
2022/07/01 19:54:14;;;;;;;27.85;2.45;;;;;;;23.10;41.56;101970.31;16139817;19;129479;-53
2022/07/01 19:59:36;;;;;;;25.63;2.65;;;;;;;23.09;41.42;101982.59;16143648;19;128743;-51
2022/07/01 20:04:59;;;;;;;19.02;1.83;;;;;;;23.07;41.76;101988.44;16143233;19;128791;-53
2022/07/01 20:10:21;;;;;;;24.73;2.38;;;;;;;23.07;42.10;101995.94;16142793;19;129409;-53
2022/07/01 20:15:43;;;;;;;28.52;2.25;;;;;;;23.01;41.70;102004.25;16138218;19;132447;-53
2022/07/01 20:21:05;;;;;;;23.45;1.90;;;;;;;22.98;41.29;102012.25;16141050;19;129400;-52
2022/07/01 20:26:27;;;;;;;16.35;1.70;;;;;;;22.94;41.61;102008.28;16142290;19;129880;-53
2022/07/01 20:31:49;;;;;;;12.43;1.13;;;;;;;22.91;41.43;102020.75;16137889;19;129496;-53
2022/07/01 20:37:11;;;;;;;12.25;1.50;;;;;;;22.89;41.41;102022.94;16140396;19;129976;-52
2022/07/01 20:42:39;;;;;;;14.80;1.40;;;;;;;22.86;40.99;102024.25;16138672;19;129688;-49
2022/07/01 20:48:01;;;;;;;10.70;1.40;;;;;;;22.84;41.00;102036.78;16134139;19;128899;-55
2022/07/01 20:53:22;;;;;;;9.13;1.40;;;;;;;22.82;41.15;102047.34;16135758;19;128879;-53
2022/07/01 20:58:46;;;;;;;7.53;1.48;;;;;;;22.81;41.14;102037.28;16141039;19;129859;-52
2022/07/01 21:04:08;;;;;;;11.52;1.27;;;;;;;22.82;41.29;102044.53;16139515;19;129740;-55
2022/07/01 21:09:32;;;;;;;10.55;1.15;;;;;;;22.83;41.35;102043.44;16137781;19;129367;-53
2022/07/01 21:14:54;;;;;;;19.00;1.25;;;;;;;22.83;41.46;102044.28;16133925;19;128782;-53
2022/07/01 21:20:16;;;;;;;5.05;1.02;;;;;;;22.82;41.75;102055.72;16137777;19;129023;-54
2022/07/01 21:25:42;;;;;;;6.40;1.10;;;;;;;22.82;41.56;102051.00;16138488;19;130380;-51
2022/07/01 21:31:03;;;;;;;12.00;1.58;;;;;;;22.82;41.42;102055.72;16138007;19;129629;-53
2022/07/01 21:36:26;;;;;;;13.15;1.02;;;;;;;22.80;41.69;102057.91;16131091;19;129836;-48
2022/07/01 21:41:48;;;;;;;6.63;0.95;;;;;;;22.80;41.63;102058.75;16134378;19;129824;-52
2022/07/01 21:47:10;;;;;;;10.27;1.15;;;;;;;22.81;41.88;102054.00;16133255;19;129275;-51
2022/07/01 21:52:34;;;;;;;5.78;0.95;;;;;;;22.80;41.72;102066.25;16131965;19;130546;-50
2022/07/01 21:57:57;;;;;;;12.40;1.15;;;;;;;22.79;41.92;102067.34;16131328;19;129539;-51
2022/07/01 22:03:21;;;;;;;8.57;1.02;;;;;;;22.78;42.07;102062.88;16134001;19;131147;-53
2022/07/01 22:08:53;;;;;;;9.98;0.95;;;;;;;22.76;41.66;102067.88;16132476;19;132909;-48
2022/07/01 22:14:19;;;;;;;14.43;1.40;;;;;;;22.73;42.09;102063.59;16128240;19;128891;-51
2022/07/01 22:19:48;;;;;;;6.97;1.05;;;;;;;22.71;41.77;102063.00;16128215;19;129088;-51
2022/07/01 22:25:13;;;;;;;7.95;1.27;;;;;;;22.68;42.02;102069.94;16132169;19;129900;-49
2022/07/01 22:30:37;;;;;;;15.13;0.90;;;;;;;22.68;41.57;102069.94;16129725;19;128974;-54
2022/07/01 22:36:01;;;;;;;6.93;1.20;;;;;;;22.66;41.96;102072.13;16119824;19;129551;-55
2022/07/01 22:41:25;;;;;;;7.60;0.80;;;;;;;22.67;42.07;102076.59;16126448;19;130693;-51
2022/07/01 22:47:10;;;;;;;5.32;0.82;;;;;;;22.66;42.07;102080.47;16124337;19;129520;-53
2022/07/01 22:53:03;;;;;;;3.00;0.40;;;;;;;22.66;41.87;102083.28;16127348;19;129561;-52
2022/07/01 22:58:37;;;;;;;2.20;0.50;;;;;;;22.65;41.75;102094.69;16129149;19;131828;-53
2022/07/01 23:04:03;;;;;;;7.95;0.70;;;;;;;22.62;41.85;102107.19;16139550;19;129543;-51
2022/07/01 23:09:45;;;;;;;1.98;0.70;;;;;;;22.63;42.05;102106.09;16144238;19;129828;-54
2022/07/01 23:20:58;;;;;;;3.25;0.68;;;;;;;22.59;41.80;102094.56;16144018;19;130970;-51
2022/07/01 23:26:25;;;;;;;3.10;0.70;;;;;;;22.60;42.32;102103.78;16142747;19;129190;-52
2022/07/01 23:31:51;;;;;;;2.33;0.30;;;;;;;22.58;41.78;102111.56;16142032;19;129316;-54
2022/07/01 23:37:14;;;;;;;3.42;0.65;;;;;;;22.58;42.16;102117.13;16138200;19;129484;-53
2022/07/01 23:42:36;;;;;;;3.13;0.30;;;;;;;22.57;42.06;102121.88;16138582;19;129519;-51
2022/07/01 23:47:58;;;;;;;1.65;0.30;;;;;;;22.56;41.99;102119.31;16138782;19;131392;-47
2022/07/01 23:53:20;;;;;;;1.40;0.40;;;;;;;22.55;42.02;102121.28;16137772;19;129737;-53
2022/07/01 23:58:41;;;;;;;2.45;0.32;;;;;;;22.54;42.21;102113.13;16139786;19;129043;-53
